Accueil
METAR-TAF:

METAR-TAF

Aéroports :

Greeley-Weld County Airport

Greeley, Colorado, États-Unis

latitude: 40-26N, longitude: 104-38W, altitude: 1420 m

Observation

Le bulletin a été fait il y a 1 heure et 7 minutes, à 15:56 UTC
Vent 5 kt de sud/sud-est
Température 16°C
Humidité 29%
Pression 1016 hPa
Visibilité: 16.1 km
Ciel clair

METAR: KGXY 071556Z AUTO 15005KT 10SM CLR 16/M02 A3000 RMK AO2 SLP145 T01611022

Heure: 11:03 (17:03 UTC)


TAF: absent

Observations et prévisions météorologiques de plus de 4000 aéroports (messages METAR et TAF).

Les stations disponibles sont représentées par des disques jaunes et rouges sur la carte.

Passer la souris dessus pour voir le nom de la station.

Cliquer dessus pour voir les observations et prévisions météorologiques.

Pour changer de carte: cliquez sur les boutons verts avec une croix noire pour zoomer, sur le bouton vert avec un tiret pour effectuer un zoom arrière, ou sur les flèches vertes pour les cartes adjacentes.


METAR-TAF: